Time;durP1;ratioP1;P1;durP2;ratioP2;P2;SDS_P1;SDS_P2;PMS_P1;PMS_P2;Temp;Humidity;BMP_temperature;BMP_pressure;BME280_temperature;BME280_humidity;BME280_pressure;Samples;Min_cycle;Max_cycle;Signal;HPM_P1;HPM_P2
2021/01/14 00:00:33;;;;;;;3.75;2.30;;;4.60;99.90;;;;;;5041631;28;20123;-77
2021/01/14 00:02:59;;;;;;;7.28;2.60;;;4.60;99.90;;;;;;5042306;28;20049;-78
2021/01/14 00:05:24;;;;;;;4.65;2.58;;;4.60;99.90;;;;;;5041358;28;20072;-77
2021/01/14 00:07:50;;;;;;;4.07;2.10;;;4.50;99.90;;;;;;5058845;28;20095;-78
2021/01/14 00:10:17;;;;;;;3.42;1.58;;;4.50;99.90;;;;;;5042602;28;20041;-78
2021/01/14 00:12:43;;;;;;;2.92;1.48;;;4.50;99.90;;;;;;5041262;28;20039;-78
2021/01/14 00:15:13;;;;;;;2.38;1.30;;;4.50;99.90;;;;;;5042586;28;20037;-78
2021/01/14 00:17:38;;;;;;;2.92;1.73;;;4.40;99.90;;;;;;5042633;28;20032;-78
2021/01/14 00:20:12;;;;;;;2.25;1.58;;;4.40;99.90;;;;;;5041837;28;20037;-78
2021/01/14 00:22:38;;;;;;;3.28;1.98;;;4.40;99.90;;;;;;5042626;28;20114;-78
2021/01/14 00:25:06;;;;;;;2.50;1.60;;;4.40;99.90;;;;;;5040713;28;20052;-78
2021/01/14 00:27:32;;;;;;;2.92;1.77;;;4.30;99.90;;;;;;5056520;28;20519;-78
2021/01/14 00:29:58;;;;;;;2.13;1.83;;;4.30;99.90;;;;;;5039970;28;20037;-78
2021/01/14 00:32:23;;;;;;;2.97;1.88;;;4.30;99.90;;;;;;5038855;28;20127;-78
2021/01/14 00:34:49;;;;;;;3.25;2.13;;;4.30;99.90;;;;;;5041432;28;20047;-78
2021/01/14 00:39:59;;;;;;;3.10;1.50;;;4.20;99.90;;;;;;5041423;28;20052;-78
2021/01/14 00:42:24;;;;;;;2.78;1.95;;;4.20;99.90;;;;;;5041316;28;20033;-79
2021/01/14 00:44:50;;;;;;;3.35;2.22;;;4.20;99.90;;;;;;5043126;28;20033;-78
2021/01/14 00:47:16;;;;;;;3.92;1.88;;;4.20;99.90;;;;;;5039763;28;20041;-78
2021/01/14 00:49:42;;;;;;;4.70;2.10;;;4.10;99.90;;;;;;5040087;28;20761;-78
2021/01/14 00:52:10;;;;;;;3.60;2.00;;;4.10;99.90;;;;;;5041207;28;20116;-78
2021/01/14 00:54:39;;;;;;;5.43;2.78;;;4.10;99.90;;;;;;5040731;28;20716;-78
2021/01/14 00:57:09;;;;;;;8.05;2.30;;;4.10;99.90;;;;;;5040478;28;20029;-78
2021/01/14 00:59:36;;;;;;;5.45;2.70;;;4.10;99.90;;;;;;5039686;28;20075;-78
2021/01/14 01:02:05;;;;;;;4.40;2.45;;;4.00;99.90;;;;;;5041937;28;20029;-78
2021/01/14 01:04:31;;;;;;;4.40;2.60;;;4.00;99.90;;;;;;5042485;28;20041;-79
2021/01/14 01:06:56;;;;;;;4.28;2.65;;;4.10;99.90;;;;;;5041853;28;20029;-78
2021/01/14 01:09:23;;;;;;;3.08;2.00;;;4.10;99.90;;;;;;5041012;28;20067;-79
2021/01/14 01:11:49;;;;;;;4.20;2.75;;;4.10;99.90;;;;;;5040489;28;20108;-79
2021/01/14 01:14:15;;;;;;;4.15;2.90;;;4.00;99.90;;;;;;5042727;28;20045;-79
2021/01/14 01:16:40;;;;;;;4.28;2.72;;;4.00;99.90;;;;;;5041782;28;20044;-77
2021/01/14 01:19:06;;;;;;;3.80;2.35;;;4.00;99.90;;;;;;5042359;28;20064;-78
2021/01/14 01:21:31;;;;;;;5.95;2.50;;;4.00;99.90;;;;;;5041145;28;20025;-77
2021/01/14 01:23:57;;;;;;;4.53;2.75;;;4.10;99.90;;;;;;5042251;28;20129;-78
2021/01/14 01:26:22;;;;;;;6.70;2.90;;;4.10;99.90;;;;;;5041180;28;20139;-78
2021/01/14 01:28:48;;;;;;;4.78;2.90;;;4.10;99.90;;;;;;5039474;28;20052;-78
2021/01/14 01:31:14;;;;;;;6.82;3.58;;;4.00;99.90;;;;;;5038676;28;20147;-77
2021/01/14 01:33:41;;;;;;;3.85;2.30;;;4.10;99.90;;;;;;5041526;28;20697;-77
2021/01/14 01:36:10;;;;;;;8.55;3.40;;;4.00;99.90;;;;;;5041791;28;20037;-78
2021/01/14 01:38:36;;;;;;;5.47;3.35;;;4.00;99.90;;;;;;5039366;28;20434;-77
2021/01/14 01:41:03;;;;;;;6.32;3.22;;;4.00;99.90;;;;;;5039855;28;20044;-78
2021/01/14 01:43:29;;;;;;;5.35;3.10;;;4.00;99.90;;;;;;5040290;28;20036;-78
2021/01/14 01:45:55;;;;;;;6.10;3.70;;;4.00;99.90;;;;;;5040137;28;20100;-78
2021/01/14 01:48:23;;;;;;;7.75;2.95;;;4.00;99.90;;;;;;5040151;28;20594;-78
2021/01/14 01:50:50;;;;;;;6.75;3.25;;;4.00;99.90;;;;;;5038769;28;20064;-78
2021/01/14 01:53:16;;;;;;;9.45;2.85;;;4.00;99.90;;;;;;5040853;28;20114;-79
2021/01/14 01:55:45;;;;;;;5.10;2.70;;;4.00;99.90;;;;;;5040114;28;20102;-79
2021/01/14 01:58:12;;;;;;;5.03;2.75;;;4.00;99.90;;;;;;5039413;28;20041;-79
2021/01/14 02:00:38;;;;;;;6.05;3.20;;;4.00;99.90;;;;;;5039008;28;20114;-79
2021/01/14 02:03:04;;;;;;;6.53;3.10;;;4.00;99.90;;;;;;5036540;28;20037;-79
2021/01/14 02:05:30;;;;;;;5.18;2.90;;;4.00;99.90;;;;;;5039307;28;20056;-79
2021/01/14 02:08:19;;;;;;;5.60;2.25;;;4.00;99.90;;;;;;5039231;28;20706;-78
2021/01/14 02:11:02;;;;;;;5.35;2.53;;;4.00;99.90;;;;;;5038963;28;20060;-79
2021/01/14 02:13:31;;;;;;;7.53;2.22;;;3.90;99.90;;;;;;5054625;28;20115;-78
2021/01/14 02:15:58;;;;;;;7.40;2.22;;;3.90;99.90;;;;;;5039227;28;20078;-79
2021/01/14 02:18:24;;;;;;;2.97;2.00;;;3.90;99.90;;;;;;5039667;28;20041;-78
2021/01/14 02:20:54;;;;;;;4.72;2.55;;;3.90;99.90;;;;;;5038179;28;20036;-78
2021/01/14 02:23:41;;;;;;;3.08;2.17;;;3.80;99.90;;;;;;5039840;28;20041;-78
2021/01/14 02:26:20;;;;;;;3.53;2.17;;;3.80;99.90;;;;;;5039712;28;20050;-77
2021/01/14 02:28:47;;;;;;;4.57;2.50;;;3.80;99.90;;;;;;5029992;28;20139;-77
2021/01/14 02:31:14;;;;;;;4.97;2.25;;;3.80;99.90;;;;;;5037595;28;20496;-78
2021/01/14 02:33:40;;;;;;;5.97;2.25;;;3.70;99.90;;;;;;5039964;28;20037;-79
2021/01/14 02:36:06;;;;;;;6.82;2.03;;;3.70;99.90;;;;;;5040563;28;20041;-78
2021/01/14 02:38:33;;;;;;;3.92;1.95;;;3.70;99.90;;;;;;5038428;28;20033;-78
2021/01/14 02:40:58;;;;;;;5.68;2.15;;;3.70;99.90;;;;;;5029965;28;20037;-78
2021/01/14 02:43:24;;;;;;;4.68;2.30;;;3.60;99.90;;;;;;5038494;28;20044;-78
2021/01/14 02:45:50;;;;;;;4.13;2.20;;;3.60;99.90;;;;;;5038316;28;20029;-78
2021/01/14 02:48:22;;;;;;;5.13;1.58;;;3.60;99.90;;;;;;5041134;28;20037;-78
2021/01/14 02:50:53;;;;;;;3.72;2.10;;;3.60;99.90;;;;;;5040207;28;20469;-78
2021/01/14 02:53:21;;;;;;;3.95;2.13;;;3.60;99.90;;;;;;5043752;28;20038;-77
2021/01/14 02:55:48;;;;;;;5.30;2.50;;;3.60;99.90;;;;;;5046043;28;20033;-77
2021/01/14 02:58:14;;;;;;;3.95;2.08;;;3.60;99.90;;;;;;5041669;28;20093;-78
2021/01/14 03:00:39;;;;;;;5.60;1.83;;;3.60;99.90;;;;;;5041235;28;20136;-77
2021/01/14 03:03:05;;;;;;;5.60;2.20;;;3.60;99.90;;;;;;5060666;28;20071;-79
2021/01/14 03:05:30;;;;;;;3.65;2.38;;;3.50;99.90;;;;;;5038435;28;20029;-79
2021/01/14 03:07:56;;;;;;;5.65;2.83;;;3.50;99.90;;;;;;5005628;28;20038;-79
2021/01/14 03:10:21;;;;;;;7.32;2.80;;;3.50;99.90;;;;;;5013391;28;20067;-77
2021/01/14 03:12:47;;;;;;;5.03;2.67;;;3.50;99.90;;;;;;5011272;28;20029;-78
2021/01/14 03:15:13;;;;;;;3.83;2.30;;;3.50;99.90;;;;;;5004887;28;20042;-77
2021/01/14 03:17:39;;;;;;;8.45;2.42;;;3.50;99.90;;;;;;5021783;28;20067;-77
2021/01/14 03:20:05;;;;;;;3.90;2.10;;;3.50;99.90;;;;;;4992235;28;20501;-77
2021/01/14 03:22:31;;;;;;;5.60;2.65;;;3.50;99.90;;;;;;5041983;28;20043;-77
2021/01/14 03:24:57;;;;;;;6.97;2.97;;;3.50;99.90;;;;;;5016732;28;20037;-78
2021/01/14 03:27:22;;;;;;;7.65;2.70;;;3.50;99.90;;;;;;5018676;28;20047;-77
2021/01/14 03:29:48;;;;;;;4.78;2.40;;;3.50;99.90;;;;;;5005705;28;20035;-78
2021/01/14 03:32:13;;;;;;;4.57;2.55;;;3.50;99.90;;;;;;4990617;28;20429;-78
2021/01/14 03:34:39;;;;;;;10.32;3.05;;;3.40;99.90;;;;;;5014001;28;20414;-78
2021/01/14 03:37:05;;;;;;;6.90;2.78;;;3.50;99.90;;;;;;4966458;28;20029;-78
2021/01/14 03:39:31;;;;;;;5.22;2.45;;;3.40;99.90;;;;;;4987322;28;20094;-78
2021/01/14 03:41:57;;;;;;;4.95;2.83;;;3.40;99.90;;;;;;4996481;28;20034;-78
2021/01/14 03:44:23;;;;;;;5.93;2.80;;;3.30;99.90;;;;;;4992328;28;20087;-77
2021/01/14 03:46:50;;;;;;;5.32;2.83;;;3.30;99.90;;;;;;5003576;28;20493;-77
2021/01/14 03:49:16;;;;;;;5.40;2.63;;;3.30;99.90;;;;;;4992820;28;20115;-77
2021/01/14 03:51:44;;;;;;;8.75;2.67;;;3.20;99.90;;;;;;5002233;28;20091;-78
2021/01/14 03:54:11;;;;;;;7.03;3.03;;;3.20;99.90;;;;;;5009017;28;20045;-78
2021/01/14 03:56:41;;;;;;;5.25;2.92;;;3.10;99.90;;;;;;5018727;28;20064;-78
2021/01/14 03:59:07;;;;;;;6.07;2.90;;;3.10;99.90;;;;;;5010578;28;20117;-78
2021/01/14 04:01:35;;;;;;;14.82;3.60;;;3.10;99.90;;;;;;5006644;28;20115;-78
2021/01/14 04:04:01;;;;;;;5.05;3.17;;;3.10;99.90;;;;;;4978296;28;20025;-78
2021/01/14 04:06:37;;;;;;;8.02;2.80;;;3.10;99.90;;;;;;4970213;28;20893;-78
2021/01/14 04:09:06;;;;;;;5.55;2.92;;;3.00;99.90;;;;;;5015093;28;20069;-78
2021/01/14 04:11:32;;;;;;;6.65;3.38;;;3.00;99.90;;;;;;4988970;28;20029;-78
2021/01/14 04:13:59;;;;;;;9.65;3.30;;;2.90;99.90;;;;;;5033478;28;20025;-78
2021/01/14 04:16:25;;;;;;;7.20;3.33;;;2.90;99.90;;;;;;4995867;28;20038;-78
2021/01/14 04:18:51;;;;;;;5.82;3.35;;;2.90;99.90;;;;;;4988091;28;20041;-77
2021/01/14 04:21:17;;;;;;;5.13;2.85;;;2.90;99.90;;;;;;5016607;28;20056;-77
2021/01/14 04:23:43;;;;;;;7.28;3.65;;;2.90;99.90;;;;;;5001857;28;20045;-77
2021/01/14 04:26:09;;;;;;;6.32;3.33;;;2.90;99.90;;;;;;5013055;28;20095;-77
2021/01/14 04:28:36;;;;;;;10.57;4.10;;;2.90;99.90;;;;;;5037022;28;20484;-77
2021/01/14 04:31:02;;;;;;;8.63;3.67;;;2.80;99.90;;;;;;4992828;28;20067;-77
2021/01/14 04:33:27;;;;;;;11.52;3.70;;;2.80;99.90;;;;;;5015811;28;20788;-77
2021/01/14 04:35:55;;;;;;;6.28;3.50;;;2.80;99.90;;;;;;4990648;28;20041;-77
2021/01/14 04:38:23;;;;;;;8.77;4.20;;;2.80;99.90;;;;;;5013466;28;20508;-77
2021/01/14 04:40:59;;;;;;;6.50;3.45;;;2.80;99.90;;;;;;5009838;28;20071;-77
2021/01/14 04:43:27;;;;;;;7.47;3.97;;;2.70;99.90;;;;;;5008496;28;20041;-77
2021/01/14 04:46:04;;;;;;;7.63;4.00;;;2.70;99.90;;;;;;5040758;28;20041;-77
2021/01/14 04:48:34;;;;;;;7.53;3.83;;;2.70;99.90;;;;;;5039748;28;20044;-78
2021/01/14 04:51:09;;;;;;;5.65;3.17;;;2.70;99.90;;;;;;5023585;28;20037;-77
2021/01/14 04:53:37;;;;;;;9.15;3.47;;;2.60;99.90;;;;;;4971077;28;20531;-77
2021/01/14 04:56:06;;;;;;;9.32;4.35;;;2.60;99.90;;;;;;5019731;28;20048;-77
2021/01/14 04:58:32;;;;;;;9.20;3.80;;;2.60;99.90;;;;;;4988704;28;20403;-78
2021/01/14 05:00:59;;;;;;;11.63;4.40;;;2.60;99.90;;;;;;5003126;28;20041;-78
2021/01/14 05:03:28;;;;;;;9.82;4.00;;;2.60;99.90;;;;;;5003197;28;20045;-78
2021/01/14 05:05:55;;;;;;;9.25;4.55;;;2.50;99.90;;;;;;5013523;28;20108;-78
2021/01/14 05:08:28;;;;;;;7.25;3.55;;;2.50;99.90;;;;;;5010797;28;20108;-78
2021/01/14 05:10:55;;;;;;;10.82;3.75;;;2.50;99.90;;;;;;5003300;28;20066;-78
2021/01/14 05:13:21;;;;;;;7.35;3.58;;;2.50;99.90;;;;;;4985193;28;21027;-78
2021/01/14 05:15:47;;;;;;;9.23;4.40;;;2.50;99.90;;;;;;5013211;28;20136;-78
2021/01/14 05:18:13;;;;;;;8.60;3.80;;;2.50;99.90;;;;;;5010280;28;20116;-78
2021/01/14 05:20:38;;;;;;;6.22;3.92;;;2.40;99.90;;;;;;5012929;28;20364;-78
2021/01/14 05:23:06;;;;;;;6.57;3.17;;;2.40;99.90;;;;;;5036526;28;20088;-78
2021/01/14 05:25:32;;;;;;;8.38;3.22;;;2.40;99.90;;;;;;5013517;28;20063;-79
2021/01/14 05:28:12;;;;;;;13.52;4.18;;;2.40;99.90;;;;;;5005741;28;20040;-78
2021/01/14 05:30:42;;;;;;;8.57;4.28;;;2.30;99.90;;;;;;5007699;28;20056;-78
2021/01/14 05:33:18;;;;;;;9.88;4.07;;;2.30;99.90;;;;;;5038057;28;20048;-79
2021/01/14 05:35:51;;;;;;;8.90;4.38;;;2.30;99.90;;;;;;5039840;28;20082;-78
2021/01/14 05:38:47;;;;;;;11.52;4.57;;;2.30;99.90;;;;;;5039248;28;20517;-79
2021/01/14 05:41:19;;;;;;;12.48;4.68;;;2.30;99.90;;;;;;5037161;28;20036;-78
2021/01/14 05:43:59;;;;;;;9.70;4.20;;;2.30;99.90;;;;;;5041876;28;20029;-78
2021/01/14 05:46:32;;;;;;;16.63;5.32;;;2.30;99.90;;;;;;5039964;28;20124;-78
2021/01/14 05:49:00;;;;;;;17.53;4.50;;;2.30;99.90;;;;;;5041088;28;20064;-79
2021/01/14 05:51:30;;;;;;;9.63;4.47;;;2.30;99.90;;;;;;5036989;28;20029;-78
2021/01/14 05:53:57;;;;;;;12.18;4.95;;;2.40;99.90;;;;;;5034584;28;20033;-78
2021/01/14 05:56:42;;;;;;;13.35;4.68;;;2.40;99.90;;;;;;5030884;28;20061;-78
2021/01/14 05:59:13;;;;;;;12.00;5.07;;;2.40;99.90;;;;;;5029392;28;20033;-78
2021/01/14 06:01:53;;;;;;;9.85;4.35;;;2.40;99.90;;;;;;5027173;28;20619;-78
2021/01/14 06:04:23;;;;;;;15.05;5.45;;;2.40;99.90;;;;;;5030870;28;20494;-79
2021/01/14 06:06:50;;;;;;;12.13;4.55;;;2.40;99.90;;;;;;5026776;28;20600;-77
2021/01/14 06:09:18;;;;;;;12.15;5.32;;;2.40;99.90;;;;;;5035278;28;20041;-78
2021/01/14 06:11:45;;;;;;;10.30;5.78;;;2.40;99.90;;;;;;5029081;28;20038;-77
2021/01/14 06:14:30;;;;;;;9.65;4.97;;;2.40;99.90;;;;;;5035326;28;20033;-77
2021/01/14 06:16:58;;;;;;;10.32;4.78;;;2.40;99.90;;;;;;5032240;28;20488;-77
2021/01/14 06:19:25;;;;;;;10.60;4.63;;;2.40;99.90;;;;;;5027374;28;20037;-78
2021/01/14 06:21:55;;;;;;;11.82;5.00;;;2.40;99.90;;;;;;5036029;28;20119;-78
2021/01/14 06:24:24;;;;;;;9.27;5.13;;;2.40;99.90;;;;;;5029295;28;20052;-78
2021/01/14 06:26:54;;;;;;;10.65;5.38;;;2.40;99.90;;;;;;5037306;28;20468;-77
2021/01/14 06:29:26;;;;;;;11.20;5.95;;;2.40;99.90;;;;;;5038810;28;20324;-77
2021/01/14 06:32:07;;;;;;;9.70;5.22;;;2.40;99.90;;;;;;5042773;28;20144;-77
2021/01/14 06:34:34;;;;;;;14.05;5.70;;;2.40;99.90;;;;;;5041300;28;20132;-77
2021/01/14 06:37:20;;;;;;;16.40;6.28;;;2.40;99.90;;;;;;5057439;28;20033;-77
2021/01/14 06:39:51;;;;;;;10.63;5.15;;;2.40;99.90;;;;;;5042612;28;20516;-77
2021/01/14 06:42:23;;;;;;;12.80;6.55;;;2.40;99.90;;;;;;5040877;28;20171;-78
2021/01/14 06:45:02;;;;;;;11.25;6.18;;;2.40;99.90;;;;;;5044297;28;20033;-79
2021/01/14 06:47:30;;;;;;;9.05;5.20;;;2.40;99.90;;;;;;5041500;28;20048;-79
2021/01/14 06:50:18;;;;;;;13.43;5.68;;;2.40;99.90;;;;;;5042281;28;20132;-78
2021/01/14 06:52:59;;;;;;;11.38;5.63;;;2.40;99.90;;;;;;5039483;28;20806;-77
2021/01/14 06:55:26;;;;;;;9.02;6.15;;;2.40;99.90;;;;;;5040368;28;20136;-76
2021/01/14 06:58:12;;;;;;;12.73;5.22;;;2.40;99.90;;;;;;5042138;28;20033;-77
2021/01/14 07:00:50;;;;;;;9.50;5.70;;;2.40;99.90;;;;;;5041543;28;20033;-84
2021/01/14 07:03:23;;;;;;;12.90;5.97;;;2.40;99.90;;;;;;5042908;28;20190;-77
2021/01/14 07:05:51;;;;;;;9.35;5.97;;;2.40;99.90;;;;;;5043380;28;20036;-77
2021/01/14 07:08:42;;;;;;;14.30;6.47;;;2.40;99.90;;;;;;5042588;28;20032;-79
2021/01/14 07:11:14;;;;;;;14.15;6.22;;;2.40;99.90;;;;;;5042055;28;20040;-79
2021/01/14 07:13:47;;;;;;;13.23;5.82;;;2.40;99.90;;;;;;5043042;28;20033;-78
2021/01/14 07:16:24;;;;;;;16.67;6.07;;;2.30;99.90;;;;;;5044214;28;20509;-78
2021/01/14 07:18:50;;;;;;;11.02;5.82;;;2.40;99.90;;;;;;5044317;28;20501;-78
2021/01/14 07:21:34;;;;;;;11.57;6.53;;;2.40;99.90;;;;;;5041984;28;20124;-77
2021/01/14 07:24:20;;;;;;;13.80;6.88;;;2.40;99.90;;;;;;5044261;28;20381;-79
2021/01/14 07:26:47;;;;;;;14.60;6.85;;;2.30;99.90;;;;;;5029760;28;20029;-80
2021/01/14 07:29:14;;;;;;;16.95;7.50;;;2.30;99.90;;;;;;5042575;28;20120;-80
2021/01/14 07:31:51;;;;;;;13.32;6.13;;;2.30;99.90;;;;;;5040163;28;20044;-79
2021/01/14 07:34:39;;;;;;;14.05;7.35;;;2.30;99.90;;;;;;5041012;28;20091;-79
2021/01/14 07:37:17;;;;;;;13.27;5.50;;;2.30;99.90;;;;;;5043345;28;20056;-80
2021/01/14 07:39:53;;;;;;;10.70;5.25;;;2.30;99.90;;;;;;5042762;28;20080;-79
2021/01/14 07:42:29;;;;;;;12.70;6.22;;;2.30;99.90;;;;;;5039937;28;20127;-77
2021/01/14 07:45:02;;;;;;;11.00;5.40;;;2.30;99.90;;;;;;5042496;28;20036;-79
2021/01/14 07:47:33;;;;;;;9.75;5.93;;;2.30;99.90;;;;;;5057360;28;20057;-78
2021/01/14 07:50:17;;;;;;;10.70;5.95;;;2.30;99.90;;;;;;5040831;28;20033;-78
2021/01/14 07:52:45;;;;;;;10.93;5.70;;;2.30;99.90;;;;;;5041089;28;20125;-78
2021/01/14 07:55:10;;;;;;;11.60;5.65;;;2.30;99.90;;;;;;5038157;28;20149;-78
2021/01/14 07:57:45;;;;;;;11.30;6.30;;;2.30;99.90;;;;;;5044295;28;20036;-79
2021/01/14 08:00:21;;;;;;;14.02;6.40;;;2.30;99.90;;;;;;5039828;28;20040;-78
2021/01/14 08:03:05;;;;;;;10.43;5.93;;;2.30;99.90;;;;;;5042693;28;20044;-78
2021/01/14 08:05:44;;;;;;;18.98;6.93;;;2.30;99.90;;;;;;5056975;28;20035;-79
2021/01/14 08:08:31;;;;;;;13.88;6.38;;;2.30;99.90;;;;;;5039308;28;20593;-80
2021/01/14 08:11:11;;;;;;;13.32;7.40;;;2.30;99.90;;;;;;5039473;28;20112;-81
2021/01/14 08:14:06;;;;;;;18.48;7.60;;;2.30;99.90;;;;;;5040531;28;20044;-80
2021/01/14 08:16:42;;;;;;;;;;;2.30;99.90;;;;;;5039110;28;20032;-80
2021/01/14 08:19:07;;;;;;;14.20;6.85;;;2.30;99.90;;;;;;5039578;28;19913;-79
2021/01/14 08:21:33;;;;;;;15.10;5.95;;;2.30;99.90;;;;;;5040059;28;20107;-79
2021/01/14 08:24:00;;;;;;;14.07;6.35;;;2.20;99.90;;;;;;5039822;28;20037;-77
2021/01/14 08:26:26;;;;;;;14.23;6.47;;;2.30;99.90;;;;;;5041167;28;20036;-78
2021/01/14 08:29:00;;;;;;;16.60;6.85;;;2.30;99.90;;;;;;5041523;28;20044;-79
2021/01/14 08:31:38;;;;;;;14.10;6.55;;;2.30;99.90;;;;;;5040204;28;20037;-79
2021/01/14 08:34:07;;;;;;;16.95;6.63;;;2.30;99.90;;;;;;5056023;28;20065;-79
2021/01/14 08:36:44;;;;;;;14.70;6.63;;;2.30;99.90;;;;;;5039601;28;20587;-78
2021/01/14 08:39:10;;;;;;;16.15;7.00;;;2.30;99.90;;;;;;5040372;28;20031;-79
2021/01/14 08:41:37;;;;;;;14.80;7.13;;;2.30;99.90;;;;;;5039421;28;20037;-80
2021/01/14 08:44:03;;;;;;;10.60;5.65;;;2.30;99.90;;;;;;5041983;28;20089;-78
2021/01/14 08:46:46;;;;;;;19.85;6.75;;;2.30;99.90;;;;;;5041631;28;20166;-79
2021/01/14 08:49:15;;;;;;;13.75;6.15;;;2.30;99.90;;;;;;5039987;28;20564;-79
2021/01/14 08:51:42;;;;;;;18.02;5.85;;;2.30;99.90;;;;;;5039327;28;20084;-79
2021/01/14 08:54:09;;;;;;;15.52;7.20;;;2.30;99.90;;;;;;5040664;28;20124;-78
2021/01/14 08:56:36;;;;;;;17.08;7.05;;;2.30;99.90;;;;;;5043232;28;20032;-81
2021/01/14 08:59:16;;;;;;;20.90;7.63;;;2.30;99.90;;;;;;5042481;28;20033;-79
2021/01/14 09:01:42;;;;;;;11.98;6.63;;;2.30;99.90;;;;;;5037700;28;20290;-78
2021/01/14 09:04:09;;;;;;;16.80;7.10;;;2.30;99.90;;;;;;5039596;28;20037;-79
2021/01/14 09:06:40;;;;;;;19.85;7.20;;;2.30;99.90;;;;;;5042256;28;20136;-78
2021/01/14 09:09:09;;;;;;;21.02;7.40;;;2.30;99.90;;;;;;5041646;28;20405;-80
2021/01/14 09:11:35;;;;;;;19.45;8.18;;;2.30;99.90;;;;;;5040558;28;20046;-78
2021/01/14 09:14:05;;;;;;;18.17;7.63;;;2.40;99.90;;;;;;5040620;28;20043;-78
2021/01/14 09:16:31;;;;;;;14.75;7.95;;;2.40;99.90;;;;;;5041241;28;20017;-78
2021/01/14 09:18:57;;;;;;;19.02;7.90;;;2.40;99.90;;;;;;5039598;28;20133;-77
2021/01/14 09:21:23;;;;;;;18.52;8.25;;;2.40;99.90;;;;;;5039503;28;20139;-79
2021/01/14 09:23:48;;;;;;;17.42;7.05;;;2.40;99.90;;;;;;5041375;28;20037;-78
2021/01/14 09:26:18;;;;;;;15.32;7.70;;;2.40;99.90;;;;;;5042427;28;20086;-78
2021/01/14 09:28:48;;;;;;;14.52;7.80;;;2.40;99.90;;;;;;5042317;28;20047;-77
2021/01/14 09:31:15;;;;;;;16.63;8.15;;;2.50;99.90;;;;;;5038563;28;20052;-79
2021/01/14 09:33:43;;;;;;;24.00;8.02;;;2.50;99.90;;;;;;5042173;28;20063;-84
2021/01/14 09:36:13;;;;;;;16.45;7.28;;;2.50;99.90;;;;;;5040128;28;20037;-85
2021/01/14 09:38:52;;;;;;;16.00;8.60;;;2.50;99.90;;;;;;5044970;28;20141;-83
2021/01/14 09:41:29;;;;;;;21.13;8.48;;;2.50;99.90;;;;;;5035887;28;23053;-83
2021/01/14 09:43:56;;;;;;;12.70;6.70;;;2.60;99.90;;;;;;5040036;28;20561;-81
2021/01/14 09:46:28;;;;;;;15.05;7.72;;;2.50;99.90;;;;;;5041489;28;20405;-83
2021/01/14 09:49:04;;;;;;;24.00;7.72;;;2.60;99.90;;;;;;5043930;28;20094;-77
2021/01/14 09:51:30;;;;;;;18.77;7.95;;;2.60;99.90;;;;;;5039439;28;20037;-80
2021/01/14 09:53:55;;;;;;;17.67;7.82;;;2.60;99.90;;;;;;5041916;28;20041;-81
2021/01/14 09:56:31;;;;;;;16.95;7.13;;;2.70;99.90;;;;;;5040912;28;20037;-79
2021/01/14 09:59:02;;;;;;;13.82;6.93;;;2.70;99.90;;;;;;5042658;28;20483;-82
2021/01/14 10:01:33;;;;;;;16.65;6.25;;;2.70;99.90;;;;;;5042220;28;20040;-81
2021/01/14 10:04:05;;;;;;;12.25;6.47;;;2.70;99.90;;;;;;5042543;28;20040;-79
2021/01/14 10:06:35;;;;;;;19.60;7.13;;;2.70;99.90;;;;;;5042710;28;20032;-78
2021/01/14 10:09:02;;;;;;;18.88;6.47;;;2.80;99.90;;;;;;5045509;28;20037;-79
2021/01/14 10:11:28;;;;;;;17.73;7.10;;;2.70;99.90;;;;;;5042693;28;20049;-79
2021/01/14 10:13:53;;;;;;;12.38;6.00;;;2.70;99.90;;;;;;5041162;28;20041;-78
2021/01/14 10:16:21;;;;;;;16.35;5.93;;;2.70;99.90;;;;;;5059282;28;20067;-78
2021/01/14 10:18:46;;;;;;;13.88;5.45;;;2.70;99.90;;;;;;5045788;28;20480;-78
2021/01/14 10:21:15;;;;;;;16.85;6.10;;;2.70;99.90;;;;;;5044023;28;20026;-78
2021/01/14 10:23:41;;;;;;;12.23;5.78;;;2.70;99.90;;;;;;5043393;28;20339;-78
2021/01/14 10:26:07;;;;;;;16.23;5.45;;;2.70;99.90;;;;;;5041400;28;20021;-78
2021/01/14 10:28:43;;;;;;;30.25;12.50;;;2.60;99.90;;;;;;5045720;28;20099;-77
2021/01/14 10:31:09;;;;;;;18.38;6.97;;;2.60;99.90;;;;;;5043016;28;20067;-78
2021/01/14 10:33:35;;;;;;;19.63;8.45;;;2.60;99.90;;;;;;5043212;28;20040;-78
2021/01/14 10:36:00;;;;;;;10.15;5.82;;;2.70;99.90;;;;;;5043431;28;20037;-77
2021/01/14 10:38:26;;;;;;;21.40;6.40;;;2.70;99.90;;;;;;5044596;28;20044;-81
2021/01/14 10:40:54;;;;;;;10.73;5.18;;;2.70;99.90;;;;;;5043555;28;20562;-79
2021/01/14 10:43:30;;;;;;;13.65;5.70;;;2.70;99.90;;;;;;5041331;28;20069;-84
2021/01/14 10:45:55;;;;;;;24.08;7.10;;;2.70;99.90;;;;;;5042851;28;20413;-78
2021/01/14 10:48:22;;;;;;;13.15;5.78;;;2.80;99.90;;;;;;5058260;28;20028;-79
2021/01/14 10:50:55;;;;;;;18.00;6.65;;;2.80;99.90;;;;;;5043268;28;20025;-79
2021/01/14 10:53:27;;;;;;;13.85;6.28;;;2.80;99.90;;;;;;5042112;28;20025;-79
2021/01/14 10:56:06;;;;;;;12.68;5.40;;;2.70;99.90;;;;;;5043597;28;20029;-80
2021/01/14 10:58:32;;;;;;;12.95;5.43;;;2.70;99.90;;;;;;5040692;28;20494;-79
2021/01/14 11:00:58;;;;;;;20.98;5.78;;;2.60;99.90;;;;;;5042129;28;20052;-78
2021/01/14 11:03:26;;;;;;;13.85;5.65;;;2.60;99.90;;;;;;5043002;28;20061;-79
2021/01/14 11:05:52;;;;;;;13.40;5.38;;;2.60;99.90;;;;;;5041931;28;20037;-79
2021/01/14 11:08:25;;;;;;;15.65;7.40;;;2.70;99.90;;;;;;5041521;28;22406;-79
2021/01/14 11:11:11;;;;;;;16.27;6.82;;;2.60;99.90;;;;;;5043756;28;20266;-78
2021/01/14 11:13:39;;;;;;;19.80;6.15;;;2.60;99.90;;;;;;5043077;28;20749;-79
2021/01/14 11:16:06;;;;;;;14.85;6.32;;;2.60;99.90;;;;;;5057646;28;20041;-79
2021/01/14 11:18:43;;;;;;;11.85;5.70;;;2.60;99.90;;;;;;5058708;28;20067;-78
2021/01/14 11:21:11;;;;;;;16.15;6.60;;;2.60;99.90;;;;;;5041934;28;20041;-78
2021/01/14 11:23:37;;;;;;;15.65;6.68;;;2.60;99.90;;;;;;5043862;28;20186;-78
2021/01/14 11:26:04;;;;;;;13.10;6.10;;;2.60;99.90;;;;;;5042966;28;20033;-79
2021/01/14 11:28:41;;;;;;;19.40;7.00;;;2.60;99.90;;;;;;5043496;28;20024;-79
2021/01/14 11:31:07;;;;;;;15.98;6.20;;;2.70;99.90;;;;;;5041862;28;20055;-79
2021/01/14 11:33:33;;;;;;;10.82;5.95;;;2.70;99.90;;;;;;5041359;28;20029;-78
2021/01/14 11:35:59;;;;;;;13.05;6.30;;;2.60;99.90;;;;;;5042867;28;20040;-78
2021/01/14 11:38:24;;;;;;;16.20;6.50;;;2.60;99.90;;;;;;5043142;28;20040;-78
2021/01/14 11:40:51;;;;;;;13.73;5.38;;;2.60;99.90;;;;;;5042647;28;20029;-78
2021/01/14 11:43:17;;;;;;;17.92;6.15;;;2.60;99.90;;;;;;5041546;28;20393;-78
2021/01/14 11:45:43;;;;;;;31.83;7.63;;;2.60;99.90;;;;;;5057458;28;20040;-79
2021/01/14 11:48:08;;;;;;;17.10;7.00;;;2.60;99.90;;;;;;5041541;28;20037;-78
2021/01/14 11:50:34;;;;;;;15.95;7.30;;;2.60;99.90;;;;;;5041649;28;20037;-78
2021/01/14 11:53:00;;;;;;;17.45;7.32;;;2.70;99.90;;;;;;5042307;28;20025;-78
2021/01/14 11:55:25;;;;;;;19.60;6.13;;;2.70;99.90;;;;;;5043284;28;20170;-78
2021/01/14 11:57:51;;;;;;;9.30;5.43;;;2.80;99.90;;;;;;5043613;28;20045;-79
2021/01/14 12:00:17;;;;;;;13.05;5.75;;;2.70;99.90;;;;;;5042298;28;20041;-81
2021/01/14 12:02:43;;;;;;;14.60;6.50;;;2.80;99.90;;;;;;5043384;28;20043;-83
2021/01/14 12:05:09;;;;;;;15.40;6.05;;;2.90;99.90;;;;;;5042281;28;20029;-80
2021/01/14 12:07:34;;;;;;;19.05;5.93;;;3.00;99.90;;;;;;5041462;28;20049;-80
2021/01/14 12:10:00;;;;;;;15.35;5.53;;;3.00;99.90;;;;;;5041647;28;20171;-80
2021/01/14 12:12:26;;;;;;;12.25;5.80;;;3.00;99.90;;;;;;5041026;28;20049;-81
2021/01/14 12:14:51;;;;;;;13.90;5.00;;;3.00;99.90;;;;;;5040377;28;20033;-77
2021/01/14 12:17:17;;;;;;;22.30;5.88;;;3.00;99.90;;;;;;5039548;28;20090;-77
2021/01/14 12:19:43;;;;;;;9.48;4.43;;;3.10;99.90;;;;;;5043024;28;20040;-81
2021/01/14 12:22:08;;;;;;;12.15;5.05;;;3.00;99.90;;;;;;5042551;28;20380;-81
2021/01/14 12:24:34;;;;;;;19.02;5.55;;;3.10;99.90;;;;;;5044750;28;20067;-79
2021/01/14 12:27:00;;;;;;;11.50;4.80;;;3.20;99.90;;;;;;5046961;28;20052;-80
2021/01/14 12:29:26;;;;;;;12.30;5.53;;;3.10;99.90;;;;;;5043750;28;20063;-80
2021/01/14 12:31:53;;;;;;;13.02;4.53;;;3.20;99.90;;;;;;5041986;28;20033;-80
2021/01/14 12:34:18;;;;;;;11.75;4.28;;;3.30;99.90;;;;;;5040996;28;20052;-78
2021/01/14 12:36:45;;;;;;;16.95;6.18;;;3.40;99.90;;;;;;5041495;28;20178;-80
2021/01/14 12:39:11;;;;;;;11.27;5.13;;;3.50;99.90;;;;;;5041507;28;20086;-79
2021/01/14 12:41:37;;;;;;;16.80;5.28;;;3.30;99.90;;;;;;5038981;28;20045;-79
2021/01/14 12:44:03;;;;;;;20.77;5.40;;;3.20;99.90;;;;;;5041318;28;20371;-79
2021/01/14 12:46:32;;;;;;;10.32;4.97;;;3.00;99.90;;;;;;5043169;28;20112;-79
2021/01/14 12:48:58;;;;;;;16.58;4.57;;;3.00;99.90;;;;;;5043352;28;20029;-78
2021/01/14 12:51:24;;;;;;;11.27;5.20;;;3.00;99.90;;;;;;5039782;28;20025;-79
2021/01/14 12:53:49;;;;;;;10.30;5.03;;;3.10;99.90;;;;;;5042608;28;20037;-78
2021/01/14 12:56:15;;;;;;;15.85;5.68;;;3.20;99.90;;;;;;5041851;28;20025;-78
2021/01/14 12:58:41;;;;;;;9.55;5.18;;;3.10;99.90;;;;;;5044332;28;20033;-78
2021/01/14 13:01:07;;;;;;;13.40;4.90;;;3.30;99.90;;;;;;5040363;28;20033;-80
2021/01/14 13:03:33;;;;;;;9.82;4.63;;;3.20;99.90;;;;;;5043237;28;20032;-79
2021/01/14 13:05:58;;;;;;;9.70;4.75;;;3.20;99.90;;;;;;5041589;28;20600;-79